Time;durP1;ratioP1;P1;durP2;ratioP2;P2;SDS_P1;SDS_P2;PMS_P1;PMS_P2;Temp;Humidity;BMP_temperature;BMP_pressure;BME280_temperature;BME280_humidity;BME280_pressure;Samples;Min_cycle;Max_cycle;Signal;HPM_P1;HPM_P2
2022/09/13 00:01:01;;;;;;;1.90;1.80;;;;;;;15.57;66.10;98455.47;4874789;29;20053;-67
2022/09/13 00:03:29;;;;;;;1.80;1.70;;;;;;;15.55;66.28;98446.88;4880451;29;20490;-67
2022/09/13 00:05:56;;;;;;;2.90;2.03;;;;;;;15.53;66.36;98443.66;4871100;29;20104;-66
2022/09/13 00:08:23;;;;;;;2.10;1.90;;;;;;;15.49;66.46;98440.66;4893376;29;20124;-66
2022/09/13 00:10:49;;;;;;;1.77;1.67;;;;;;;15.47;66.25;98429.44;4893476;29;20049;-66
2022/09/13 00:13:17;;;;;;;1.98;1.52;;;;;;;15.45;66.44;98420.84;4893381;29;20542;-66
2022/09/13 00:15:49;;;;;;;1.90;1.80;;;;;;;15.45;66.06;98422.69;4894452;29;20061;-66
2022/09/13 00:18:17;;;;;;;2.78;2.10;;;;;;;15.40;66.19;98426.06;4894071;29;20454;-66
2022/09/13 00:20:44;;;;;;;2.20;2.00;;;;;;;15.36;66.35;98415.06;4878885;29;20058;-66
2022/09/13 00:23:11;;;;;;;2.17;1.90;;;;;;;15.35;66.71;98417.97;4879086;29;20144;-66
2022/09/13 00:25:39;;;;;;;1.60;1.50;;;;;;;15.33;66.82;98417.38;4878576;29;20053;-66
2022/09/13 00:28:06;;;;;;;1.60;1.50;;;;;;;15.33;67.08;98418.19;4892878;29;20047;-66
2022/09/13 00:30:33;;;;;;;1.30;1.20;;;;;;;15.35;66.72;98421.44;4877569;29;20044;-66
2022/09/13 00:33:03;;;;;;;1.48;1.38;;;;;;;15.36;66.91;98422.25;4869952;29;20109;-66
2022/09/13 00:35:30;;;;;;;1.85;1.73;;;;;;;15.37;66.94;98413.22;4854381;29;20049;-66
2022/09/13 00:37:58;;;;;;;1.70;1.60;;;;;;;15.36;66.75;98419.59;4877318;29;20513;-66
2022/09/13 00:40:25;;;;;;;1.60;1.50;;;;;;;15.33;67.04;98420.84;4893085;29;20406;-66
2022/09/13 00:42:52;;;;;;;1.70;1.60;;;;;;;15.31;66.94;98422.94;4893076;29;20053;-66
2022/09/13 00:45:18;;;;;;;2.67;2.00;;;;;;;15.27;66.65;98418.31;4877452;29;20053;-66
2022/09/13 00:47:57;;;;;;;1.70;1.60;;;;;;;15.19;67.21;98429.31;4878326;29;20080;-66
2022/09/13 00:50:26;;;;;;;1.70;1.60;;;;;;;15.13;67.29;98428.38;4877403;29;20059;-66
2022/09/13 00:53:10;;;;;;;1.27;1.17;;;;;;;15.06;67.43;98438.31;4878692;29;20049;-66
2022/09/13 00:55:39;;;;;;;1.40;1.30;;;;;;;15.07;68.00;98445.28;4878707;29;20461;-66
2022/09/13 00:58:12;;;;;;;1.15;1.05;;;;;;;15.06;68.07;98435.66;4878315;29;20057;-65
2022/09/13 01:00:39;;;;;;;0.98;0.98;;;;;;;15.07;68.07;98429.31;4878545;29;20055;-65
2022/09/13 01:03:12;;;;;;;0.80;0.80;;;;;;;15.10;68.19;98435.00;4870987;29;20048;-66
2022/09/13 01:05:47;;;;;;;0.75;0.75;;;;;;;15.14;67.86;98440.63;4885885;29;20049;-66
2022/09/13 01:08:21;;;;;;;0.70;0.70;;;;;;;15.17;67.66;98455.34;4881245;29;20049;-66
2022/09/13 01:10:52;;;;;;;0.75;0.75;;;;;;;15.19;67.83;98450.63;4896588;29;20087;-65
2022/09/13 01:13:33;;;;;;;1.30;1.10;;;;;;;15.19;67.22;98450.63;4881507;29;20514;-65
2022/09/13 01:16:00;;;;;;;2.40;2.00;;;;;;;15.12;67.45;98442.72;4896407;29;20082;-65
2022/09/13 01:18:27;;;;;;;2.00;1.80;;;;;;;15.01;66.84;98436.34;4882238;29;20072;-65
2022/09/13 01:21:30;;;;;;;2.08;1.88;;;;;;;14.90;67.25;98426.53;4882026;29;20045;-65
2022/09/13 01:24:43;;;;;;;2.35;2.15;;;;;;;14.78;67.41;98431.81;4896564;29;20056;-66
2022/09/13 01:27:51;;;;;;;2.42;2.22;;;;;;;14.68;68.16;98422.75;4865187;29;20505;-66
2022/09/13 01:30:17;;;;;;;2.55;2.05;;;;;;;14.66;68.30;98424.84;4895172;29;20049;-65
2022/09/13 01:33:02;;;;;;;2.53;2.33;;;;;;;14.61;68.27;98429.00;4888584;29;20046;-65
2022/09/13 01:35:50;;;;;;;3.38;2.35;;;;;;;14.58;68.27;98434.78;4874323;29;20041;-69
2022/09/13 01:38:42;;;;;;;1.98;1.88;;;;;;;14.56;68.54;98452.00;4880512;29;20057;-67
2022/09/13 01:41:55;;;;;;;1.90;1.80;;;;;;;14.53;68.86;98460.41;4895987;29;20056;-66
2022/09/13 01:44:59;;;;;;;1.50;1.40;;;;;;;14.52;69.16;98466.78;4864965;29;20100;-66
2022/09/13 01:47:52;;;;;;;1.30;1.20;;;;;;;14.52;69.05;98480.88;4896023;29;20053;-66
2022/09/13 01:50:43;;;;;;;1.30;1.20;;;;;;;14.52;68.90;98472.09;4896619;29;20413;-67
2022/09/13 01:53:22;;;;;;;1.25;1.15;;;;;;;14.52;69.06;98456.13;4897458;29;20045;-67
2022/09/13 01:56:02;;;;;;;0.80;0.80;;;;;;;14.58;69.33;98453.41;4898505;29;20037;-67
2022/09/13 01:58:41;;;;;;;1.00;1.00;;;;;;;14.66;69.59;98451.47;4898748;29;20057;-67
2022/09/13 02:01:17;;;;;;;1.25;1.13;;;;;;;14.69;69.10;98446.47;4895906;29;20493;-67
2022/09/13 02:03:52;;;;;;;1.55;1.45;;;;;;;14.74;69.03;98461.78;4888390;29;20064;-68
2022/09/13 02:06:25;;;;;;;1.50;1.40;;;;;;;14.78;69.12;98471.72;4889842;29;20057;-67
2022/09/13 02:09:09;;;;;;;1.30;1.20;;;;;;;14.77;68.93;98479.91;4895955;29;20053;-68
2022/09/13 02:11:49;;;;;;;1.63;1.52;;;;;;;14.73;68.52;98484.88;4882446;29;20472;-67
2022/09/13 02:14:23;;;;;;;1.20;1.20;;;;;;;14.70;68.56;98484.56;4881890;29;20081;-68
2022/09/13 02:16:59;;;;;;;2.35;1.10;;;;;;;14.66;68.67;98470.09;4895043;29;20056;-67
2022/09/13 02:19:46;;;;;;;1.05;1.00;;;;;;;14.67;68.73;98461.88;4881330;29;20105;-66
2022/09/13 02:22:17;;;;;;;1.50;1.40;;;;;;;14.71;68.91;98463.03;4880503;29;20045;-67
2022/09/13 02:24:50;;;;;;;1.30;1.20;;;;;;;14.77;69.02;98448.81;4880361;29;20057;-68
2022/09/13 02:27:25;;;;;;;2.47;2.28;;;;;;;14.76;68.03;98446.38;4881964;29;20076;-66
2022/09/13 02:29:57;;;;;;;2.38;2.20;;;;;;;14.71;68.24;98457.72;4896194;29;20053;-67
2022/09/13 02:32:32;;;;;;;1.90;1.80;;;;;;;14.67;68.26;98453.88;4877370;29;20053;-68
2022/09/13 02:35:01;;;;;;;1.63;1.52;;;;;;;14.60;68.79;98466.47;4876778;29;20056;-68
2022/09/13 02:37:31;;;;;;;1.25;1.25;;;;;;;14.57;69.23;98465.09;4877800;29;20079;-68
2022/09/13 02:40:08;;;;;;;1.63;1.33;;;;;;;14.63;69.06;98459.88;4878367;29;20064;-68
2022/09/13 02:42:41;;;;;;;3.65;1.60;;;;;;;14.65;69.14;98458.59;4864052;29;20049;-67
2022/09/13 02:45:10;;;;;;;2.30;2.13;;;;;;;14.67;68.81;98447.75;4879253;29;20105;-67
2022/09/13 02:47:39;;;;;;;2.90;2.03;;;;;;;14.67;68.71;98434.44;4865752;29;20295;-67
2022/09/13 02:50:22;;;;;;;3.90;2.67;;;;;;;14.66;68.65;98427.53;4880291;29;20045;-67
2022/09/13 02:53:08;;;;;;;2.40;2.20;;;;;;;14.60;68.80;98438.00;4864762;29;20049;-67
2022/09/13 02:55:44;;;;;;;3.30;2.53;;;;;;;14.59;68.59;98430.25;4878370;29;20049;-68
2022/09/13 02:58:20;;;;;;;2.30;2.00;;;;;;;14.57;68.83;98433.16;4879425;29;20042;-66
2022/09/13 03:00:53;;;;;;;2.80;2.60;;;;;;;14.59;68.81;98433.72;4878635;29;20056;-67
2022/09/13 03:03:19;;;;;;;2.17;1.98;;;;;;;14.61;68.88;98439.66;4871772;29;20050;-67
2022/09/13 03:05:46;;;;;;;2.25;2.05;;;;;;;14.64;68.98;98441.03;4879850;29;20050;-67
2022/09/13 03:08:15;;;;;;;1.65;1.55;;;;;;;14.67;69.01;98432.59;4880041;29;20049;-67
2022/09/13 03:10:52;;;;;;;2.30;2.10;;;;;;;14.67;68.32;98437.13;4877353;29;20053;-67
2022/09/13 03:13:41;;;;;;;2.40;2.20;;;;;;;14.61;68.34;98442.31;4862738;29;20068;-67
2022/09/13 03:16:41;;;;;;;2.92;2.03;;;;;;;14.54;68.63;98446.09;4862131;29;20527;-68
2022/09/13 03:19:42;;;;;;;1.85;1.75;;;;;;;14.52;68.88;98429.53;4876145;29;20049;-67
2022/09/13 03:22:47;;;;;;;2.00;1.90;;;;;;;14.50;68.74;98427.13;4861405;29;20502;-68
2022/09/13 03:25:44;;;;;;;1.85;1.75;;;;;;;14.50;68.96;98418.34;4878408;29;20058;-68
2022/09/13 03:28:48;;;;;;;2.35;2.03;;;;;;;14.49;69.07;98422.84;4862141;29;20061;-68
2022/09/13 03:31:33;;;;;;;2.42;2.22;;;;;;;14.48;68.61;98417.72;4877654;29;20086;-68
2022/09/13 03:34:32;;;;;;;2.88;2.33;;;;;;;14.44;68.73;98420.00;4873071;29;20498;-68
2022/09/13 03:37:11;;;;;;;2.22;2.10;;;;;;;14.40;68.62;98412.72;4877344;29;20128;-67
2022/09/13 03:39:53;;;;;;;2.30;2.10;;;;;;;14.37;69.39;98411.34;4876214;29;20529;-68
2022/09/13 03:42:28;;;;;;;2.63;2.42;;;;;;;14.37;69.40;98404.16;4876504;29;20046;-68
2022/09/13 03:44:56;;;;;;;2.60;2.40;;;;;;;14.38;69.01;98394.34;4862158;29;20045;-68
2022/09/13 03:47:27;;;;;;;4.43;2.78;;;;;;;14.35;69.04;98387.59;4875875;29;20048;-68
2022/09/13 03:49:55;;;;;;;3.35;2.60;;;;;;;14.33;68.97;98400.34;4877699;29;20045;-66
2022/09/13 03:52:23;;;;;;;4.00;2.78;;;;;;;14.32;69.24;98408.53;4864281;29;20042;-66
2022/09/13 03:54:51;;;;;;;3.10;2.90;;;;;;;14.29;69.30;98387.72;4862144;29;20509;-66
2022/09/13 03:57:21;;;;;;;2.95;2.65;;;;;;;14.27;69.39;98384.47;4876026;29;20049;-66
2022/09/13 03:59:55;;;;;;;3.08;2.55;;;;;;;14.22;69.55;98374.50;4875438;29;20057;-66
2022/09/13 04:02:25;;;;;;;2.40;2.20;;;;;;;14.24;69.48;98380.41;5329108;23;20037;-68
2022/09/13 04:04:51;;;;;;;2.70;2.50;;;;;;;14.27;69.51;98379.94;4878749;29;20056;-69
2022/09/13 04:07:20;;;;;;;2.80;2.28;;;;;;;14.26;68.81;98386.31;4880844;29;20064;-69
2022/09/13 04:09:47;;;;;;;2.67;2.47;;;;;;;14.20;69.18;98384.53;4896433;29;20070;-69
2022/09/13 04:12:15;;;;;;;3.45;2.80;;;;;;;14.13;69.15;98387.31;4896355;29;20048;-69
2022/09/13 04:14:42;;;;;;;3.08;2.78;;;;;;;14.15;69.73;98383.59;4881060;29;20119;-68
2022/09/13 04:17:10;;;;;;;3.70;3.22;;;;;;;14.18;69.58;98383.16;4881333;29;20052;-69
2022/09/13 04:19:39;;;;;;;3.63;3.33;;;;;;;14.15;69.45;98384.41;4898637;29;20127;-68
2022/09/13 04:22:05;;;;;;;2.53;2.33;;;;;;;14.15;69.82;98389.72;4897847;29;20053;-68
2022/09/13 04:24:32;;;;;;;2.38;2.17;;;;;;;14.19;69.66;98392.75;4896600;29;20104;-68
2022/09/13 04:27:00;;;;;;;2.65;2.30;;;;;;;14.23;69.50;98397.41;4896082;29;20148;-68
2022/09/13 04:29:27;;;;;;;2.10;2.00;;;;;;;14.27;69.52;98411.06;4897304;29;20100;-68
2022/09/13 04:31:54;;;;;;;2.33;1.63;;;;;;;14.30;69.59;98408.75;4911558;29;20048;-68
2022/09/13 04:34:21;;;;;;;2.42;2.22;;;;;;;14.36;69.64;98412.34;4897202;29;20044;-68
2022/09/13 04:36:51;;;;;;;1.70;1.60;;;;;;;14.39;69.88;98409.25;4895884;29;20037;-68
2022/09/13 04:39:19;;;;;;;1.88;1.60;;;;;;;14.43;69.66;98405.09;4897290;29;20049;-68
2022/09/13 04:41:47;;;;;;;1.67;1.58;;;;;;;14.49;69.82;98411.38;4897099;29;20045;-68
2022/09/13 04:44:15;;;;;;;1.40;1.30;;;;;;;14.53;69.73;98407.22;4897396;29;20465;-68
2022/09/13 04:46:45;;;;;;;1.20;1.10;;;;;;;14.58;69.55;98421.47;4895711;29;20052;-69
2022/09/13 04:49:13;;;;;;;0.90;0.90;;;;;;;14.63;69.86;98414.66;4897017;29;20044;-69
2022/09/13 04:51:40;;;;;;;1.60;1.13;;;;;;;14.66;69.96;98423.00;4897136;29;20051;-69
2022/09/13 04:54:09;;;;;;;0.80;0.80;;;;;;;14.71;69.73;98436.44;4897141;29;20048;-69
2022/09/13 04:56:40;;;;;;;1.13;1.08;;;;;;;14.75;69.63;98442.09;4895652;29;20048;-69
2022/09/13 04:59:07;;;;;;;1.00;1.00;;;;;;;14.81;69.67;98430.53;4896993;29;20088;-69
2022/09/13 05:01:33;;;;;;;0.75;0.75;;;;;;;14.84;69.44;98436.22;4897132;29;20045;-68
2022/09/13 05:04:00;;;;;;;1.48;1.38;;;;;;;14.87;68.91;98432.28;4896424;29;20060;-68
2022/09/13 05:06:27;;;;;;;1.13;1.13;;;;;;;14.89;68.92;98432.06;4895725;29;20450;-69
2022/09/13 05:08:55;;;;;;;2.25;1.83;;;;;;;14.90;68.52;98428.34;4897207;29;20044;-68
2022/09/13 05:11:23;;;;;;;1.90;1.70;;;;;;;14.89;68.70;98427.53;4897098;29;20100;-69
2022/09/13 05:13:56;;;;;;;1.52;1.38;;;;;;;14.90;68.55;98417.69;4897046;29;20049;-69
2022/09/13 05:16:28;;;;;;;1.40;1.30;;;;;;;14.95;68.51;98412.53;4896620;29;20051;-69
2022/09/13 05:18:54;;;;;;;1.75;1.50;;;;;;;14.98;68.58;98409.38;4895909;29;20048;-68
2022/09/13 05:21:23;;;;;;;2.90;1.67;;;;;;;15.01;68.28;98415.06;4895829;29;20465;-69
2022/09/13 05:23:52;;;;;;;2.60;2.40;;;;;;;15.02;67.81;98421.19;4895879;29;20081;-68
2022/09/13 05:26:21;;;;;;;2.58;2.17;;;;;;;15.00;68.01;98437.41;4896863;29;20044;-68
2022/09/13 05:28:47;;;;;;;3.25;2.53;;;;;;;14.99;67.61;98432.31;4897021;29;20560;-69
2022/09/13 05:31:18;;;;;;;2.47;2.28;;;;;;;14.97;67.84;98431.72;4895757;29;20075;-69
2022/09/13 05:33:47;;;;;;;2.00;1.88;;;;;;;14.95;68.16;98433.81;4896839;29;20045;-69
2022/09/13 05:36:13;;;;;;;2.60;1.50;;;;;;;14.97;68.35;98443.16;4895421;29;20100;-69
2022/09/13 05:38:40;;;;;;;3.22;2.40;;;;;;;14.97;67.57;98437.03;4897227;29;20104;-69
2022/09/13 05:41:06;;;;;;;2.47;2.28;;;;;;;14.97;68.19;98435.19;4897156;29;20045;-69
2022/09/13 05:43:35;;;;;;;2.40;2.20;;;;;;;14.99;68.47;98438.44;4895610;29;20064;-68
2022/09/13 05:46:05;;;;;;;3.85;2.78;;;;;;;15.05;68.12;98428.72;4896227;29;20052;-69
2022/09/13 05:48:34;;;;;;;2.40;2.20;;;;;;;15.07;67.75;98424.00;4897085;29;20131;-69
2022/09/13 05:51:18;;;;;;;2.15;1.98;;;;;;;15.10;68.14;98418.19;4896988;29;20071;-69
2022/09/13 05:53:47;;;;;;;2.95;2.75;;;;;;;15.10;67.82;98424.34;4899287;29;20056;-69
2022/09/13 05:56:16;;;;;;;4.70;2.63;;;;;;;15.10;67.92;98421.69;4898730;29;20052;-69
2022/09/13 05:58:44;;;;;;;4.53;2.55;;;;;;;15.14;67.72;98421.19;4899007;29;20064;-70
2022/09/13 06:01:12;;;;;;;3.75;2.60;;;;;;;15.16;67.41;98427.91;4883348;29;20059;-69
2022/09/13 06:03:39;;;;;;;2.00;1.70;;;;;;;15.19;67.99;98427.47;4898840;29;20049;-69
2022/09/13 06:06:07;;;;;;;1.90;1.80;;;;;;;15.26;67.50;98425.47;4901074;29;20089;-68
2022/09/13 06:08:34;;;;;;;5.90;2.90;;;;;;;15.31;67.48;98425.63;4902675;29;20061;-69
2022/09/13 06:11:04;;;;;;;3.28;2.38;;;;;;;15.35;67.77;98410.78;4904181;29;20408;-69
2022/09/13 06:13:31;;;;;;;2.65;2.45;;;;;;;15.42;67.45;98407.97;4908203;29;20231;-69
2022/09/13 06:15:59;;;;;;;2.47;2.28;;;;;;;15.47;67.59;98408.13;4909831;29;20048;-69
2022/09/13 06:18:27;;;;;;;2.40;2.20;;;;;;;15.52;67.09;98400.22;4908501;29;20048;-69
2022/09/13 06:20:59;;;;;;;3.50;2.72;;;;;;;15.52;66.84;98396.75;4892953;29;20080;-69
2022/09/13 06:23:27;;;;;;;2.90;2.50;;;;;;;15.54;67.00;98387.47;4900191;29;20543;-70
2022/09/13 06:26:09;;;;;;;2.55;2.33;;;;;;;15.60;66.89;98404.38;4899622;29;20504;-70
2022/09/13 06:28:36;;;;;;;3.92;3.03;;;;;;;15.60;66.56;98409.72;4899346;29;20061;-69
2022/09/13 06:31:11;;;;;;;3.00;2.80;;;;;;;15.58;66.45;98409.13;4899827;29;20044;-69
2022/09/13 06:33:40;;;;;;;2.13;2.03;;;;;;;15.59;66.66;98410.75;4898237;29;20062;-69
2022/09/13 06:36:10;;;;;;;2.03;1.92;;;;;;;15.64;66.92;98412.72;4897952;29;20053;-69
2022/09/13 06:38:38;;;;;;;2.10;2.00;;;;;;;15.73;66.97;98406.00;4883109;29;20493;-69
2022/09/13 06:41:10;;;;;;;1.70;1.60;;;;;;;15.83;67.42;98416.88;4898404;29;20111;-69
2022/09/13 06:43:37;;;;;;;1.15;1.08;;;;;;;15.94;66.85;98409.91;4898551;29;20073;-69
2022/09/13 06:46:10;;;;;;;1.30;1.20;;;;;;;16.01;66.99;98426.56;4914005;29;20112;-71
2022/09/13 06:48:39;;;;;;;1.30;1.20;;;;;;;16.08;67.22;98419.22;4898494;29;20056;-68
2022/09/13 06:51:15;;;;;;;1.25;1.15;;;;;;;16.18;66.52;98426.63;4898386;29;20549;-68
2022/09/13 06:53:43;;;;;;;1.15;1.10;;;;;;;16.23;66.49;98421.38;4898042;29;20500;-68
2022/09/13 06:56:12;;;;;;;1.42;1.33;;;;;;;16.27;66.62;98423.31;4913462;29;20112;-68
2022/09/13 06:58:40;;;;;;;1.52;1.42;;;;;;;16.33;66.66;98422.38;4899394;29;20104;-68
2022/09/13 07:01:19;;;;;;;1.38;1.27;;;;;;;16.43;66.30;98420.94;4899190;29;20432;-69
2022/09/13 07:03:48;;;;;;;1.48;1.30;;;;;;;16.55;66.13;98419.84;4897602;29;20052;-69
2022/09/13 07:06:20;;;;;;;1.38;1.27;;;;;;;16.68;65.98;98425.91;4897492;29;20111;-69
2022/09/13 07:08:50;;;;;;;1.13;1.13;;;;;;;16.80;65.93;98421.34;4897711;29;20505;-68
2022/09/13 07:11:18;;;;;;;1.35;1.25;;;;;;;16.91;65.64;98415.13;4898660;29;20068;-68
2022/09/13 07:13:53;;;;;;;0.93;0.93;;;;;;;17.01;65.43;98417.13;4881812;29;20057;-69
2022/09/13 07:16:23;;;;;;;1.15;1.05;;;;;;;17.13;65.33;98407.19;4897600;29;20457;-68
2022/09/13 07:18:52;;;;;;;4.22;3.60;;;;;;;17.22;64.84;98397.69;4897612;29;20057;-69
2022/09/13 07:21:19;;;;;;;4.35;3.13;;;;;;;17.27;64.82;98400.44;4897400;29;20048;-68
2022/09/13 07:23:46;;;;;;;3.17;2.92;;;;;;;17.30;64.46;98407.94;4897654;29;20045;-69
2022/09/13 07:26:12;;;;;;;2.53;2.33;;;;;;;17.33;64.26;98404.81;4897126;29;20048;-69
2022/09/13 07:28:41;;;;;;;4.80;3.40;;;;;;;17.42;64.21;98393.69;4897378;29;20572;-68
2022/09/13 07:31:10;;;;;;;4.75;3.03;;;;;;;17.49;63.90;98394.31;4898474;29;20503;-68
2022/09/13 07:33:39;;;;;;;4.15;2.67;;;;;;;17.52;62.97;98402.66;4896790;29;20104;-68
2022/09/13 07:36:06;;;;;;;3.95;2.50;;;;;;;17.57;63.51;98393.91;4898154;29;20205;-69
2022/09/13 07:38:39;;;;;;;3.85;3.10;;;;;;;17.63;62.83;98400.91;4897363;29;20108;-69
2022/09/13 07:41:08;;;;;;;4.13;3.10;;;;;;;17.70;62.62;98404.22;4897296;29;20088;-69
2022/09/13 07:43:35;;;;;;;5.90;2.80;;;;;;;17.81;62.39;98410.53;4898524;29;20051;-68
2022/09/13 07:46:06;;;;;;;4.82;4.07;;;;;;;17.87;61.92;98416.75;4897072;29;20690;-68
2022/09/13 07:48:35;;;;;;;4.43;3.75;;;;;;;17.92;62.00;98414.13;4896726;29;20060;-69
2022/09/13 07:51:10;;;;;;;4.55;3.58;;;;;;;17.98;61.71;98411.28;4881709;29;20156;-69
2022/09/13 07:53:38;;;;;;;3.67;2.95;;;;;;;18.12;61.26;98410.88;4898228;29;20045;-69
2022/09/13 07:56:10;;;;;;;3.03;2.83;;;;;;;18.30;61.48;98415.91;4896717;29;20117;-70
2022/09/13 07:58:38;;;;;;;6.70;3.53;;;;;;;18.47;60.41;98405.91;4896941;29;20045;-69
2022/09/13 08:01:16;;;;;;;3.92;3.53;;;;;;;18.56;60.20;98404.38;4896765;29;20104;-69
2022/09/13 08:03:43;;;;;;;8.48;4.38;;;;;;;18.62;59.98;98407.13;4896582;29;20477;-70
2022/09/13 08:06:10;;;;;;;3.95;3.55;;;;;;;18.68;60.01;98400.72;4890219;29;20041;-70
2022/09/13 08:08:36;;;;;;;4.30;3.88;;;;;;;18.74;59.57;98389.06;4896626;29;20044;-69
2022/09/13 08:11:05;;;;;;;3.30;3.00;;;;;;;18.81;59.71;98384.25;4897722;29;20108;-70
2022/09/13 08:13:33;;;;;;;3.65;3.35;;;;;;;18.89;59.63;98385.66;4880948;29;20116;-70
2022/09/13 08:16:04;;;;;;;3.33;3.03;;;;;;;18.92;59.11;98390.50;4897394;29;20053;-69
2022/09/13 08:18:32;;;;;;;2.92;2.63;;;;;;;18.93;59.05;98418.91;4896422;29;20052;-67
2022/09/13 08:21:00;;;;;;;3.17;2.60;;;;;;;19.04;59.10;98424.09;4896438;29;20065;-68
2022/09/13 08:23:27;;;;;;;3.22;2.80;;;;;;;19.21;58.62;98428.50;4895920;29;20055;-68
2022/09/13 08:25:53;;;;;;;3.40;3.10;;;;;;;19.32;58.53;98432.06;4895343;29;20052;-69
2022/09/13 08:28:20;;;;;;;3.83;2.78;;;;;;;19.43;58.09;98415.78;4896287;29;20056;-69
2022/09/13 08:30:53;;;;;;;3.03;2.60;;;;;;;19.53;57.79;98415.03;4881547;29;20059;-69
2022/09/13 08:33:20;;;;;;;4.18;2.80;;;;;;;19.67;57.67;98421.53;4882030;29;20492;-69
2022/09/13 08:35:54;;;;;;;3.03;2.72;;;;;;;19.81;57.24;98419.22;4895921;29;20092;-69
2022/09/13 08:38:20;;;;;;;2.47;2.28;;;;;;;19.97;56.69;98409.34;4911418;29;20389;-69
2022/09/13 08:40:53;;;;;;;3.53;2.83;;;;;;;20.14;56.59;98404.56;4896156;29;20057;-69
2022/09/13 08:43:31;;;;;;;3.28;2.88;;;;;;;20.26;56.16;98405.16;4897206;29;20037;-69
2022/09/13 08:46:03;;;;;;;4.00;3.35;;;;;;;20.33;55.87;98388.78;4896272;29;20045;-69
2022/09/13 08:48:34;;;;;;;3.97;3.05;;;;;;;20.46;55.93;98382.09;4897066;29;20052;-69
2022/09/13 08:51:06;;;;;;;3.05;2.75;;;;;;;20.61;55.41;98378.63;4897235;29;20508;-69
2022/09/13 08:53:44;;;;;;;4.63;2.63;;;;;;;20.82;55.40;98385.63;4896123;29;20508;-69
2022/09/13 08:56:17;;;;;;;2.88;2.60;;;;;;;21.01;54.63;98397.44;4895787;29;20113;-69
2022/09/13 08:58:59;;;;;;;;;;;;;;;21.12;54.61;98418.94;4896485;29;20104;-69
2022/09/13 09:01:31;;;;;;;2.45;2.10;;;;;;;21.29;54.36;98414.06;4895404;29;19924;-69
2022/09/13 09:04:38;;;;;;;1.87;1.57;;;;;;;21.46;53.96;98425.34;4895801;29;20053;-69
2022/09/13 09:07:12;;;;;;;1.42;1.33;;;;;;;21.62;53.64;98428.81;4895400;29;20077;-68
2022/09/13 09:09:47;;;;;;;1.50;1.35;;;;;;;21.77;53.27;98426.06;4896853;29;20041;-69
2022/09/13 09:12:20;;;;;;;1.17;1.10;;;;;;;21.94;52.79;98422.25;4896838;29;20036;-69
2022/09/13 09:15:04;;;;;;;1.50;1.40;;;;;;;22.04;52.64;98410.59;4895747;29;20040;-69
2022/09/13 09:17:57;;;;;;;1.92;1.83;;;;;;;22.15;52.11;98412.22;4896632;29;20466;-69
2022/09/13 09:20:40;;;;;;;2.65;2.30;;;;;;;22.21;51.67;98421.88;4895717;29;20418;-69
2022/09/13 09:23:13;;;;;;;;;;;;;;;22.25;51.55;98412.97;4895880;29;20060;-69
2022/09/13 09:25:46;;;;;;;1.40;1.30;;;;;;;22.36;51.29;98421.78;4895574;29;20476;-69
2022/09/13 09:28:15;;;;;;;1.63;1.30;;;;;;;22.50;51.16;98421.97;4914184;29;20060;-71
2022/09/13 09:31:07;;;;;;;1.65;1.40;;;;;;;22.64;50.71;98422.13;4899231;29;20428;-69
2022/09/13 09:33:48;;;;;;;1.55;1.45;;;;;;;22.68;50.91;98415.91;4899325;29;20048;-68
2022/09/13 09:36:20;;;;;;;1.75;1.60;;;;;;;22.72;51.12;98408.88;4908286;29;20413;-71
2022/09/13 09:38:47;;;;;;;1.70;1.60;;;;;;;22.78;50.67;98406.13;4899216;29;20108;-68
2022/09/13 09:41:27;;;;;;;1.48;1.38;;;;;;;22.83;50.57;98396.13;4899298;29;20103;-69
2022/09/13 09:43:58;;;;;;;1.08;1.08;;;;;;;22.93;50.66;98392.56;4899250;29;20044;-69
2022/09/13 09:46:29;;;;;;;1.50;1.40;;;;;;;23.02;50.30;98400.84;4898930;29;20056;-70
2022/09/13 09:50:07;;;;;;;1.42;1.33;;;;;;;23.10;50.31;98416.41;4900400;29;20053;-70
2022/09/13 09:51:55;;;;;;;1.60;1.20;;;;;;;23.23;50.46;98427.34;4900125;29;20057;-69
2022/09/13 09:54:25;;;;;;;2.55;1.90;;;;;;;23.31;50.05;98425.94;4899157;29;20100;-70
2022/09/13 09:56:53;;;;;;;1.60;1.50;;;;;;;23.39;49.68;98437.97;4883407;29;20057;-69
2022/09/13 09:59:31;;;;;;;1.48;1.38;;;;;;;23.47;49.68;98445.44;4899255;29;20699;-69
2022/09/13 10:02:00;;;;;;;1.60;1.50;;;;;;;23.53;49.64;98447.00;4900108;29;20070;-69
2022/09/13 10:04:28;;;;;;;1.60;1.50;;;;;;;23.64;49.74;98455.81;4900147;29;20041;-69
2022/09/13 10:07:32;;;;;;;2.65;1.60;;;;;;;23.77;49.63;98446.25;4898821;29;20049;-69
2022/09/13 10:09:58;;;;;;;;;;;;;;;23.79;49.57;98438.66;4898087;29;20049;-70
2022/09/13 10:12:28;;;;;;;1.52;1.42;;;;;;;23.88;49.50;98439.63;4898673;29;20291;-70
2022/09/13 10:15:05;;;;;;;2.15;1.40;;;;;;;23.97;49.35;98437.91;4898507;29;20112;-69
2022/09/13 10:17:31;;;;;;;1.70;1.60;;;;;;;24.02;49.20;98432.44;4900561;23;20428;-69
2022/09/13 10:20:17;;;;;;;2.45;2.00;;;;;;;24.05;49.40;98429.16;4903149;29;20048;-68
2022/09/13 10:22:44;;;;;;;2.22;1.83;;;;;;;24.04;49.35;98429.44;4899205;29;20040;-68
2022/09/13 10:25:16;;;;;;;2.10;1.90;;;;;;;23.96;49.50;98426.31;4899980;29;20428;-68
2022/09/13 10:27:49;;;;;;;1.58;1.48;;;;;;;23.92;49.63;98425.28;4898541;29;20064;-69
2022/09/13 10:30:29;;;;;;;;;;;;;;;23.89;49.94;98425.06;4898952;29;20056;-69
2022/09/13 10:32:57;;;;;;;1.70;1.60;;;;;;;23.93;49.99;98416.09;4899519;29;19930;-68
2022/09/13 10:35:24;;;;;;;1.95;1.50;;;;;;;23.97;49.88;98416.31;4914217;29;20050;-68
2022/09/13 10:37:51;;;;;;;1.77;1.42;;;;;;;24.05;49.58;98404.06;4897954;29;20409;-69
2022/09/13 10:40:32;;;;;;;1.30;1.20;;;;;;;24.13;49.83;98406.91;4883180;29;20063;-69
2022/09/13 10:43:02;;;;;;;1.30;1.17;;;;;;;24.26;50.00;98410.78;4914589;29;20071;-69
2022/09/13 10:45:30;;;;;;;1.85;1.27;;;;;;;24.34;49.23;98409.34;4884470;29;20052;-67
2022/09/13 10:48:18;;;;;;;1.10;1.00;;;;;;;24.38;49.52;98416.59;4884779;29;20048;-66
2022/09/13 10:51:05;;;;;;;1.35;1.25;;;;;;;24.49;49.47;98408.31;4902206;29;20056;-66
2022/09/13 10:53:37;;;;;;;1.15;1.10;;;;;;;24.62;49.45;98410.31;4903315;29;20062;-67
2022/09/13 10:56:17;;;;;;;1.33;1.23;;;;;;;24.73;49.37;98405.53;4889404;29;20356;-67
2022/09/13 10:58:44;;;;;;;1.10;1.10;;;;;;;24.84;49.19;98406.97;4905761;29;20049;-67
2022/09/13 11:01:52;;;;;;;1.17;1.10;;;;;;;25.00;49.08;98410.22;4904288;29;20056;-67
2022/09/13 11:05:05;;;;;;;1.35;1.25;;;;;;;25.09;48.66;98401.16;4894398;29;20051;-67
2022/09/13 11:07:51;;;;;;;1.80;1.70;;;;;;;25.03;48.68;98388.81;4883027;29;20052;-67
2022/09/13 11:10:42;;;;;;;1.75;1.55;;;;;;;25.04;48.33;98381.50;4904370;29;20061;-67
2022/09/13 11:13:17;;;;;;;1.40;1.30;;;;;;;25.11;48.48;98387.38;4902541;29;20049;-67
2022/09/13 11:16:02;;;;;;;1.20;1.10;;;;;;;25.22;48.23;98379.84;4885736;29;20501;-67
2022/09/13 11:18:48;;;;;;;1.40;1.30;;;;;;;25.34;47.91;98380.16;4885735;29;20481;-67
2022/09/13 11:21:43;;;;;;;1.40;1.30;;;;;;;25.56;47.50;98372.16;4902316;29;20053;-68
2022/09/13 11:24:56;;;;;;;1.60;1.50;;;;;;;25.78;46.68;98371.47;4900757;29;20060;-68
2022/09/13 11:27:34;;;;;;;1.50;1.40;;;;;;;25.92;46.74;98372.28;4902685;29;20049;-67
2022/09/13 11:30:14;;;;;;;1.40;1.30;;;;;;;26.03;46.62;98362.00;4885700;29;20117;-68
2022/09/13 11:33:22;;;;;;;0.98;0.98;;;;;;;26.12;46.48;98357.47;4889641;29;20135;-68
2022/09/13 11:36:13;;;;;;;1.35;1.20;;;;;;;26.23;45.93;98349.91;4862532;29;20056;-68
2022/09/13 11:38:43;;;;;;;1.40;1.30;;;;;;;26.31;45.45;98351.09;4878739;29;20398;-68
2022/09/13 11:41:12;;;;;;;1.50;1.40;;;;;;;26.29;45.35;98343.28;4879283;29;20045;-68
2022/09/13 11:43:46;;;;;;;1.50;1.40;;;;;;;26.29;45.42;98343.28;4878767;29;20339;-68
2022/09/13 11:46:18;;;;;;;1.70;1.60;;;;;;;26.29;44.83;98340.56;4878442;29;20053;-67
2022/09/13 11:49:06;;;;;;;1.27;1.17;;;;;;;26.28;44.90;98336.25;4878413;29;20056;-68
2022/09/13 11:52:05;;;;;;;1.02;1.02;;;;;;;26.29;44.30;98321.63;4863021;29;20059;-67
2022/09/13 11:54:52;;;;;;;1.45;1.20;;;;;;;26.28;43.67;98325.41;4863209;29;20053;-67
2022/09/13 11:57:33;;;;;;;1.20;1.10;;;;;;;26.23;44.09;98314.69;4878285;29;20412;-68
2022/09/13 12:00:14;;;;;;;1.50;1.40;;;;;;;26.21;43.48;98316.09;4893738;29;20055;-67
2022/09/13 12:02:53;;;;;;;1.58;1.48;;;;;;;25.98;42.21;98318.00;4900922;29;20045;-67
2022/09/13 12:05:23;;;;;;;1.30;1.20;;;;;;;25.77;42.09;98307.63;4898547;29;20096;-68
2022/09/13 12:08:08;;;;;;;1.30;1.20;;;;;;;25.63;42.56;98307.59;4881064;29;20049;-67